createdAt,value
2022-08-26T09:00:30.075Z,4928.00
2022-08-26T09:01:27.469Z,4848.00
2022-08-26T09:02:27.548Z,4752.00
2022-08-26T09:03:27.428Z,4672.00
2022-08-26T09:04:27.401Z,4708.00
2022-08-26T09:05:27.401Z,4892.00
2022-08-26T09:06:27.626Z,5068.00
2022-08-26T09:07:27.377Z,5180.00
2022-08-26T09:08:27.358Z,5284.00
2022-08-26T09:09:27.374Z,5624.00
2022-08-26T09:10:27.455Z,6168.00
2022-08-26T09:11:27.361Z,6552.00
2022-08-26T09:12:29.848Z,6560.00
2022-08-26T09:13:27.553Z,6536.00
2022-08-26T09:14:27.328Z,6592.00
2022-08-26T09:15:30.214Z,6772.00
2022-08-26T09:16:27.369Z,7008.00
2022-08-26T09:17:27.262Z,7164.00
2022-08-26T09:18:27.270Z,7268.00
2022-08-26T09:19:27.253Z,7272.00
2022-08-26T09:20:27.270Z,7204.00
2022-08-26T09:21:27.226Z,7060.00
2022-08-26T09:22:28.015Z,6900.00
2022-08-26T09:23:27.214Z,6884.00
2022-08-26T09:24:28.333Z,6912.00
2022-08-26T09:25:27.218Z,6804.00
2022-08-26T09:26:29.566Z,6696.00
2022-08-26T09:27:27.147Z,6600.00
2022-08-26T09:28:27.163Z,6552.00
2022-08-26T09:29:27.130Z,6548.00
2022-08-26T09:30:27.188Z,6468.00
2022-08-26T09:31:27.203Z,6424.00
2022-08-26T09:32:27.097Z,6444.00
2022-08-26T09:33:27.100Z,6552.00
2022-08-26T09:34:27.102Z,6720.00
2022-08-26T09:35:27.068Z,6920.00
2022-08-26T09:36:27.045Z,6976.00
2022-08-26T09:37:27.932Z,6844.00
2022-08-26T09:38:28.017Z,6676.00
2022-08-26T09:39:27.113Z,6664.00
2022-08-26T09:40:27.472Z,6784.00
2022-08-26T09:41:27.002Z,6884.00
2022-08-26T09:42:26.979Z,6804.00
2022-08-26T09:43:27.224Z,6504.00
2022-08-26T09:44:27.012Z,6288.00
2022-08-26T09:45:26.967Z,6216.00
2022-08-26T09:46:27.064Z,6208.00
2022-08-26T09:47:26.982Z,6228.00
2022-08-26T09:48:26.946Z,6172.00
2022-08-26T09:49:26.958Z,6124.00
2022-08-26T09:50:28.983Z,6224.00
2022-08-26T09:51:26.883Z,6268.00
2022-08-26T09:52:26.961Z,6244.00
2022-08-26T09:53:30.272Z,6304.00
2022-08-26T09:54:30.429Z,6420.00
2022-08-26T09:55:27.855Z,6456.00
2022-08-26T09:56:27.568Z,6308.00
2022-08-26T09:57:26.832Z,6028.00
2022-08-26T09:58:26.829Z,5832.00
2022-08-26T09:59:27.439Z,5788.00
2022-08-26T10:00:26.839Z,5880.00
2022-08-26T10:01:26.855Z,5952.00
2022-08-26T10:02:27.478Z,5996.00
2022-08-26T10:03:26.775Z,6028.00
2022-08-26T10:04:26.985Z,6024.00
2022-08-26T10:05:26.718Z,6136.00
2022-08-26T10:06:26.731Z,6308.00
2022-08-26T10:07:26.744Z,6376.00
2022-08-26T10:08:26.699Z,6248.00
2022-08-26T10:09:26.689Z,6124.00
2022-08-26T10:10:26.737Z,6108.00
2022-08-26T10:11:26.677Z,5988.00
2022-08-26T10:12:26.736Z,5784.00
2022-08-26T10:13:26.730Z,5744.00
2022-08-26T10:14:26.662Z,5876.00
2022-08-26T10:15:26.682Z,6012.00
2022-08-26T10:16:28.391Z,6200.00
2022-08-26T10:17:26.622Z,6336.00
2022-08-26T10:18:28.796Z,6360.00
2022-08-26T10:19:29.115Z,6280.00
2022-08-26T10:20:27.575Z,6076.00
2022-08-26T10:21:26.604Z,5936.00
2022-08-26T10:22:26.578Z,5836.00
2022-08-26T10:23:26.548Z,5964.00
2022-08-26T10:24:26.527Z,6112.00
2022-08-26T10:25:26.515Z,6140.00
2022-08-26T10:26:26.570Z,6236.00
2022-08-26T10:27:26.498Z,6332.00
2022-08-26T10:28:26.481Z,6412.00
2022-08-26T10:29:26.470Z,6552.00
2022-08-26T10:30:26.479Z,6728.00
2022-08-26T10:31:27.695Z,6816.00
2022-08-26T10:32:26.497Z,7016.00
2022-08-26T10:33:26.430Z,7152.00
2022-08-26T10:34:26.408Z,7296.00
2022-08-26T10:35:26.404Z,7452.00
2022-08-26T10:36:26.414Z,7560.00
2022-08-26T10:37:26.380Z,7708.00
2022-08-26T10:38:26.356Z,7780.00
2022-08-26T10:39:26.421Z,7816.00
2022-08-26T10:40:26.494Z,7856.00
2022-08-26T10:41:26.366Z,7912.00
2022-08-26T10:42:26.318Z,7876.00
2022-08-26T10:43:26.308Z,8024.00
2022-08-26T10:44:26.307Z,8180.00
2022-08-26T10:45:26.313Z,8176.00
2022-08-26T10:46:27.172Z,8216.00
2022-08-26T10:47:26.263Z,8280.00
2022-08-26T10:48:26.250Z,8396.00
2022-08-26T10:49:27.238Z,8428.00
2022-08-26T10:50:26.253Z,8416.00
2022-08-26T10:51:26.219Z,8396.00
2022-08-26T10:52:29.422Z,8488.00
2022-08-26T10:53:26.516Z,8304.00
2022-08-26T10:54:26.200Z,7928.00
2022-08-26T10:55:26.939Z,7492.00
2022-08-26T10:56:26.155Z,7136.00
2022-08-26T10:57:26.151Z,6832.00
2022-08-26T10:58:27.534Z,6516.00
2022-08-26T10:59:26.132Z,6112.00
2022-08-26T11:00:27.549Z,5892.00
2022-08-26T11:01:26.155Z,5868.00
2022-08-26T11:02:26.090Z,5796.00
2022-08-26T11:03:26.095Z,5412.00
2022-08-26T11:04:26.220Z,4832.00
2022-08-26T11:05:26.128Z,4652.00
2022-08-26T11:06:26.059Z,4700.00
2022-08-26T11:07:26.052Z,4824.00
2022-08-26T11:08:26.050Z,5004.00
2022-08-26T11:09:26.462Z,5540.00
2022-08-26T11:10:26.003Z,6120.00
2022-08-26T11:11:26.021Z,6328.00
2022-08-26T11:12:25.988Z,6456.00
2022-08-26T11:13:25.977Z,6896.00
2022-08-26T11:14:29.212Z,7208.00
2022-08-26T11:15:25.973Z,7396.00
2022-08-26T11:16:25.973Z,7700.00
2022-08-26T11:17:25.957Z,7752.00
2022-08-26T11:18:25.925Z,7764.00
2022-08-26T11:19:26.368Z,7960.00
2022-08-26T11:20:25.898Z,8240.00
2022-08-26T11:21:25.950Z,8696.00
2022-08-26T11:22:25.894Z,9116.00
2022-08-26T11:23:25.885Z,9416.00
2022-08-26T11:24:26.472Z,9608.00
2022-08-26T11:25:30.010Z,9752.00
2022-08-26T11:26:35.926Z,10092.00
2022-08-26T11:27:26.822Z,10044.00
2022-08-26T11:28:25.827Z,9952.00
2022-08-26T11:29:25.797Z,9868.00
2022-08-26T11:30:25.800Z,9920.00
2022-08-26T11:31:25.882Z,9796.00
2022-08-26T11:32:25.768Z,9568.00
2022-08-26T11:33:25.768Z,9316.00
2022-08-26T11:34:25.977Z,9464.00
2022-08-26T11:35:25.722Z,9832.00
2022-08-26T11:36:25.714Z,10176.00
2022-08-26T11:37:25.723Z,10480.00
2022-08-26T11:38:25.714Z,10700.00
2022-08-26T11:39:25.690Z,10612.00
2022-08-26T11:40:25.752Z,10336.00
2022-08-26T11:41:25.655Z,10132.00
2022-08-26T11:42:27.627Z,10036.00
2022-08-26T11:43:25.645Z,10032.00
2022-08-26T11:44:25.626Z,9848.00
2022-08-26T11:45:25.676Z,9540.00
2022-08-26T11:46:25.629Z,9316.00
2022-08-26T11:47:25.612Z,9224.00
2022-08-26T11:48:25.976Z,9120.00
2022-08-26T11:49:25.565Z,8968.00
2022-08-26T11:50:25.556Z,8748.00
2022-08-26T11:51:25.565Z,8824.00
2022-08-26T11:52:25.542Z,9296.00
2022-08-26T11:53:25.566Z,9644.00
2022-08-26T11:54:35.110Z,9568.00
2022-08-26T11:55:26.497Z,9240.00
2022-08-26T11:56:25.509Z,9492.00
2022-08-26T11:57:25.507Z,9884.00
2022-08-26T11:58:25.484Z,10256.00
2022-08-26T11:59:25.508Z,10516.00
2022-08-26T12:00:25.481Z,10624.00
2022-08-26T12:01:25.449Z,10580.00
2022-08-26T12:02:25.469Z,10516.00
2022-08-26T12:03:25.552Z,10532.00
2022-08-26T12:04:25.468Z,10512.00
2022-08-26T12:05:25.476Z,10292.00
2022-08-26T12:07:25.444Z,9508.00
2022-08-26T12:08:27.800Z,9084.00
2022-08-26T12:09:25.341Z,8824.00
2022-08-26T12:10:25.363Z,8468.00
2022-08-26T12:11:25.331Z,8132.00
2022-08-26T12:12:25.355Z,8016.00
2022-08-26T12:13:26.258Z,7972.00
2022-08-26T12:14:25.487Z,7740.00
2022-08-26T12:15:25.306Z,7400.00
2022-08-26T12:16:25.346Z,7204.00
2022-08-26T12:17:25.259Z,7292.00
2022-08-26T12:18:29.271Z,7428.00
2022-08-26T12:19:25.286Z,7848.00
2022-08-26T12:20:25.238Z,8480.00
2022-08-26T12:21:25.226Z,8888.00
2022-08-26T12:22:25.213Z,9324.00
2022-08-26T12:23:25.199Z,9696.00
2022-08-26T12:24:25.209Z,9616.00
2022-08-26T12:25:25.180Z,9484.00
2022-08-26T12:26:25.173Z,9796.00
2022-08-26T12:27:25.194Z,10232.00
2022-08-26T12:28:25.135Z,10904.00
2022-08-26T12:29:26.799Z,11404.00
2022-08-26T12:30:26.006Z,11232.00
2022-08-26T12:31:25.181Z,10584.00
2022-08-26T12:32:25.087Z,9944.00
2022-08-26T12:33:25.107Z,9684.00
2022-08-26T12:34:25.087Z,9620.00
2022-08-26T12:35:25.081Z,9320.00
2022-08-26T12:36:25.077Z,8912.00
2022-08-26T12:37:25.035Z,8704.00
2022-08-26T12:38:25.020Z,8624.00
2022-08-26T12:39:25.028Z,8624.00
2022-08-26T12:40:25.117Z,8692.00
2022-08-26T12:41:24.995Z,8712.00
2022-08-26T12:42:25.010Z,8628.00
2022-08-26T12:43:24.986Z,8924.00
2022-08-26T12:44:24.963Z,9276.00
2022-08-26T12:45:25.065Z,9692.00
2022-08-26T12:46:24.938Z,9968.00
2022-08-26T12:47:42.388Z,10088.00
2022-08-26T12:48:25.912Z,10072.00
2022-08-26T12:49:24.951Z,10008.00
2022-08-26T12:50:24.890Z,9812.00
2022-08-26T12:51:24.883Z,9588.00
2022-08-26T12:52:24.915Z,9320.00
2022-08-26T12:53:24.876Z,9244.00
2022-08-26T12:54:24.855Z,9248.00
2022-08-26T12:55:24.845Z,9452.00
2022-08-26T12:56:24.847Z,9808.00
2022-08-26T12:57:24.840Z,10232.00
2022-08-26T12:58:24.851Z,10572.00
2022-08-26T12:59:24.820Z,10984.00
2022-08-26T13:00:26.245Z,11112.00
2022-08-26T13:01:24.872Z,10936.00
2022-08-26T13:02:24.828Z,10968.00
2022-08-26T13:03:24.754Z,11476.00
2022-08-26T13:04:24.768Z,12080.00
2022-08-26T13:05:24.736Z,12356.00
2022-08-26T13:06:24.765Z,12444.00
2022-08-26T13:07:24.740Z,12236.00
2022-08-26T13:08:24.704Z,12192.00
2022-08-26T13:09:24.699Z,12028.00
2022-08-26T13:10:27.971Z,11920.00
2022-08-26T13:11:25.659Z,11856.00
2022-08-26T13:12:24.658Z,11960.00
2022-08-26T13:13:24.641Z,12044.00
2022-08-26T13:14:24.874Z,11920.00
2022-08-26T13:15:24.629Z,11544.00
2022-08-26T13:16:24.706Z,11432.00
2022-08-26T13:17:24.596Z,11636.00
2022-08-26T13:18:24.597Z,11944.00
2022-08-26T13:19:24.588Z,12432.00
2022-08-26T13:20:24.599Z,13088.00
2022-08-26T13:21:24.582Z,13936.00
2022-08-26T13:22:24.553Z,14888.00
2022-08-26T13:23:24.531Z,15680.00
2022-08-26T13:24:24.566Z,16388.00
2022-08-26T13:25:24.532Z,17408.00
2022-08-26T13:26:24.525Z,17920.00
2022-08-26T13:27:24.503Z,18368.00
2022-08-26T13:28:24.479Z,18112.00
2022-08-26T13:29:24.479Z,17184.00
2022-08-26T13:30:24.503Z,16736.00
2022-08-26T13:31:26.962Z,16400.00
2022-08-26T13:32:27.252Z,16612.00
2022-08-26T13:33:24.434Z,16264.00
2022-08-26T13:34:24.408Z,16108.00
2022-08-26T13:35:24.442Z,15268.00
2022-08-26T13:36:24.416Z,14380.00
2022-08-26T13:37:34.762Z,13628.00
2022-08-26T13:38:33.592Z,12260.00
2022-08-26T13:39:25.362Z,11224.00
2022-08-26T13:40:24.419Z,10848.00
2022-08-26T13:41:29.614Z,10672.00
2022-08-26T13:42:25.341Z,10400.00
2022-08-26T13:43:24.323Z,10208.00
2022-08-26T13:44:24.334Z,10536.00
2022-08-26T13:45:24.322Z,10776.00
2022-08-26T13:46:24.439Z,10796.00
2022-08-26T13:47:24.271Z,10712.00
2022-08-26T13:48:24.264Z,11032.00
2022-08-26T13:49:24.277Z,11276.00
2022-08-26T13:50:24.235Z,11456.00
2022-08-26T13:51:24.230Z,11292.00
2022-08-26T13:52:27.248Z,11056.00
2022-08-26T13:53:25.222Z,10748.00
2022-08-26T13:54:24.230Z,10512.00
2022-08-26T13:55:24.195Z,10044.00
2022-08-26T13:56:24.205Z,9172.00
2022-08-26T13:57:24.173Z,8792.00
2022-08-26T13:58:25.454Z,8872.00
2022-08-26T13:59:24.157Z,9344.00
2022-08-26T14:00:24.160Z,9692.00
2022-08-26T14:01:24.176Z,9744.00
2022-08-26T14:02:24.114Z,9840.00
2022-08-26T14:03:24.189Z,10296.00
2022-08-26T14:04:27.286Z,10676.00
2022-08-26T14:05:24.075Z,11064.00
2022-08-26T14:06:24.060Z,11128.00
2022-08-26T14:07:24.980Z,11068.00
2022-08-26T14:08:24.057Z,10928.00
2022-08-26T14:09:24.045Z,10792.00
2022-08-26T14:10:24.011Z,10652.00
2022-08-26T14:11:24.013Z,10548.00
2022-08-26T14:12:24.985Z,10448.00
2022-08-26T14:13:24.041Z,10508.00
2022-08-26T14:14:23.986Z,10544.00
2022-08-26T14:15:23.953Z,10500.00
2022-08-26T14:16:24.035Z,10156.00
2022-08-26T14:17:23.964Z,9940.00
2022-08-26T14:18:23.945Z,9932.00
2022-08-26T14:19:24.301Z,10384.00
2022-08-26T14:20:23.933Z,10968.00
2022-08-26T14:21:23.883Z,11540.00
2022-08-26T14:22:23.912Z,11976.00
2022-08-26T14:23:24.132Z,12368.00
2022-08-26T14:24:23.881Z,12876.00
2022-08-26T14:25:23.846Z,13272.00
2022-08-26T14:26:29.164Z,13720.00
2022-08-26T14:27:24.815Z,13868.00
2022-08-26T14:28:23.828Z,13628.00
2022-08-26T14:29:23.810Z,13464.00
2022-08-26T14:30:23.792Z,13644.00
2022-08-26T14:31:23.908Z,13340.00
2022-08-26T14:32:24.501Z,12896.00
2022-08-26T14:33:23.790Z,12452.00
2022-08-26T14:34:23.741Z,11988.00
2022-08-26T14:35:23.737Z,11900.00
2022-08-26T14:36:23.750Z,11772.00
2022-08-26T14:37:23.738Z,11528.00
2022-08-26T14:38:23.723Z,11252.00
2022-08-26T14:39:23.691Z,11124.00
2022-08-26T14:40:23.700Z,11176.00
2022-08-26T14:41:23.690Z,10980.00
2022-08-26T14:42:23.704Z,10732.00
2022-08-26T14:43:23.644Z,11044.00
2022-08-26T14:44:23.634Z,11172.00
2022-08-26T14:45:23.623Z,10588.00
2022-08-26T14:46:23.680Z,10116.00
2022-08-26T14:47:23.616Z,10068.00
2022-08-26T14:48:23.599Z,9632.00
2022-08-26T14:49:23.574Z,8812.00
2022-08-26T14:50:23.609Z,8036.00
2022-08-26T14:51:23.573Z,8040.00
2022-08-26T14:52:23.559Z,8520.00
2022-08-26T14:53:23.530Z,8860.00
2022-08-26T14:54:23.535Z,8608.00
2022-08-26T14:55:23.540Z,8104.00
2022-08-26T14:56:23.532Z,8168.00
2022-08-26T14:57:23.520Z,7468.00
2022-08-26T14:58:23.474Z,5752.00
2022-08-26T14:59:23.465Z,4916.00
2022-08-26T15:00:23.481Z,4980.00
2022-08-26T15:01:23.556Z,5392.00
2022-08-26T15:02:33.824Z,5432.00
2022-08-26T15:03:24.429Z,5088.00
2022-08-26T15:04:23.417Z,4764.00
2022-08-26T15:05:23.430Z,4576.00
2022-08-26T15:06:23.394Z,4888.00
2022-08-26T15:07:23.392Z,5348.00
2022-08-26T15:08:23.370Z,5420.00
2022-08-26T15:09:23.386Z,5224.00
2022-08-26T15:10:23.361Z,4808.00
2022-08-26T15:11:23.363Z,4552.00
2022-08-26T15:12:23.320Z,4348.00
2022-08-26T15:13:23.313Z,4340.00
2022-08-26T15:14:23.331Z,4308.00
2022-08-26T15:15:23.307Z,4312.00
2022-08-26T15:16:23.344Z,4324.00
2022-08-26T15:17:23.263Z,4504.00
2022-08-26T15:18:23.261Z,4900.00
2022-08-26T15:19:23.274Z,5312.00
2022-08-26T15:20:23.328Z,5628.00
2022-08-26T15:21:23.245Z,5860.00
2022-08-26T15:22:23.220Z,6060.00
2022-08-26T15:23:23.195Z,6368.00
2022-08-26T15:24:23.214Z,6508.00
2022-08-26T15:25:23.179Z,6436.00
2022-08-26T15:26:23.173Z,6300.00
2022-08-26T15:27:23.160Z,6304.00
2022-08-26T15:28:23.192Z,6580.00
2022-08-26T15:29:23.152Z,7024.00
2022-08-26T15:30:23.125Z,7412.00
2022-08-26T15:31:23.151Z,7516.00
2022-08-26T15:32:23.106Z,7700.00
2022-08-26T15:33:23.131Z,8196.00
2022-08-26T15:34:23.106Z,8600.00
2022-08-26T15:35:23.097Z,8768.00
2022-08-26T15:36:23.061Z,8868.00
2022-08-26T15:37:23.039Z,8960.00
2022-08-26T15:38:23.036Z,9184.00
2022-08-26T15:39:23.040Z,8852.00
2022-08-26T15:40:23.107Z,8428.00
2022-08-26T15:41:23.005Z,8096.00
2022-08-26T15:42:22.990Z,7932.00
2022-08-26T15:43:28.931Z,7328.00
2022-08-26T15:44:23.994Z,7176.00
2022-08-26T15:45:25.831Z,6828.00
2022-08-26T15:46:23.003Z,6512.00
2022-08-26T15:47:22.940Z,6060.00
2022-08-26T15:48:22.969Z,5860.00
2022-08-26T15:49:22.921Z,6176.00
2022-08-26T15:50:22.909Z,5832.00
2022-08-26T15:51:22.888Z,5760.00
2022-08-26T15:52:22.881Z,5736.00
2022-08-26T15:53:22.878Z,5224.00
2022-08-26T15:54:22.887Z,4868.00
2022-08-26T15:55:22.841Z,4576.00
2022-08-26T15:56:22.830Z,4436.00
2022-08-26T15:57:22.823Z,4268.00
2022-08-26T15:58:22.830Z,3936.00
2022-08-26T15:59:22.807Z,4000.00
2022-08-26T16:00:22.798Z,3992.00
2022-08-26T16:01:27.155Z,4156.00
2022-08-26T16:02:22.801Z,4372.00
2022-08-26T16:03:22.791Z,4520.00
2022-08-26T16:04:22.753Z,4844.00
2022-08-26T16:05:22.751Z,5080.00
2022-08-26T16:06:22.725Z,4700.00
2022-08-26T16:07:22.741Z,3968.00
2022-08-26T16:08:22.713Z,3252.00
2022-08-26T16:09:24.136Z,2832.00
2022-08-26T16:10:22.667Z,2648.00
2022-08-26T16:11:22.670Z,2648.00
2022-08-26T16:12:22.646Z,2676.00
2022-08-26T16:13:22.655Z,2852.00
2022-08-26T16:14:23.041Z,3144.00
2022-08-26T16:15:22.610Z,3464.00
2022-08-26T16:16:22.706Z,3476.00
2022-08-26T16:17:22.616Z,3076.00
2022-08-26T16:18:23.567Z,2840.00
2022-08-26T16:19:22.572Z,2620.00
2022-08-26T16:20:22.554Z,2512.00
2022-08-26T16:21:22.554Z,2520.00
2022-08-26T16:22:22.564Z,2440.00
2022-08-26T16:23:22.559Z,2288.00
2022-08-26T16:24:26.004Z,2212.00
2022-08-26T16:25:23.510Z,2148.00
2022-08-26T16:26:22.536Z,2076.00
2022-08-26T16:27:23.038Z,2020.00
2022-08-26T16:28:25.978Z,1944.00
2022-08-26T16:29:22.465Z,1916.00
2022-08-26T16:30:22.462Z,1988.00
2022-08-26T16:31:22.613Z,2032.00
2022-08-26T16:32:22.433Z,2028.00
2022-08-26T16:33:29.088Z,2012.00
2022-08-26T16:34:24.057Z,1956.00
2022-08-26T16:35:22.405Z,1896.00
2022-08-26T16:36:22.415Z,1928.00
2022-08-26T16:37:22.386Z,1928.00
2022-08-26T16:38:22.375Z,1864.00
2022-08-26T16:39:22.348Z,1832.00
2022-08-26T16:40:22.455Z,1852.00
2022-08-26T16:41:22.373Z,1840.00
2022-08-26T16:42:22.338Z,1808.00
2022-08-26T16:43:22.312Z,1764.00
2022-08-26T16:44:22.333Z,1764.00
2022-08-26T16:45:22.282Z,1780.00
2022-08-26T16:46:22.409Z,1784.00
2022-08-26T16:47:22.269Z,1756.00
2022-08-26T16:48:22.274Z,1736.00
2022-08-26T16:49:22.242Z,1672.00
2022-08-26T16:50:22.269Z,1540.00
2022-08-26T16:51:22.245Z,1360.00
2022-08-26T16:52:22.204Z,1144.00
2022-08-26T16:53:22.208Z,980.00
2022-08-26T16:54:22.238Z,876.00
2022-08-26T16:55:22.186Z,860.00
2022-08-26T16:56:22.182Z,860.00
2022-08-26T16:57:22.165Z,876.00
2022-08-26T16:58:22.483Z,880.00
2022-08-26T16:59:22.152Z,836.00
2022-08-26T17:00:22.121Z,804.00
2022-08-26T17:01:22.190Z,728.00
2022-08-26T17:02:22.188Z,656.00
2022-08-26T17:03:22.090Z,608.00
2022-08-26T17:04:22.114Z,580.00
2022-08-26T17:05:22.077Z,580.00
2022-08-26T17:06:22.058Z,596.00
2022-08-26T17:07:22.044Z,540.00
2022-08-26T17:08:28.875Z,468.00
2022-08-26T17:09:23.030Z,420.00
2022-08-26T17:10:22.012Z,392.00
2022-08-26T17:11:21.999Z,376.00
2022-08-26T17:12:21.985Z,368.00
2022-08-26T17:13:34.870Z,360.00
2022-08-26T17:14:22.958Z,364.00
2022-08-26T17:15:21.966Z,380.00
2022-08-26T17:16:26.465Z,400.00
2022-08-26T17:17:22.938Z,424.00
2022-08-26T17:18:21.924Z,444.00
2022-08-26T17:19:21.914Z,452.00
2022-08-26T17:20:21.904Z,456.00
2022-08-26T17:21:21.914Z,468.00
2022-08-26T17:22:21.874Z,512.00
2022-08-26T17:23:21.878Z,548.00
2022-08-26T17:24:21.866Z,556.00
2022-08-26T17:25:21.841Z,556.00
2022-08-26T17:26:21.865Z,524.00
2022-08-26T17:27:21.831Z,488.00
2022-08-26T17:28:21.821Z,440.00
2022-08-26T17:29:21.820Z,392.00
2022-08-26T17:30:21.804Z,380.00
2022-08-26T17:31:21.995Z,376.00
2022-08-26T17:32:21.775Z,360.00
2022-08-26T17:33:22.062Z,344.00
2022-08-26T17:34:21.759Z,340.00
2022-08-26T17:35:21.739Z,356.00
2022-08-26T17:36:21.731Z,352.00
2022-08-26T17:37:21.728Z,336.00
2022-08-26T17:38:21.707Z,312.00
2022-08-26T17:39:21.715Z,300.00
2022-08-26T17:40:21.817Z,296.00
2022-08-26T17:41:21.675Z,296.00
2022-08-26T17:42:21.712Z,296.00
2022-08-26T17:43:22.653Z,324.00
2022-08-26T17:44:21.643Z,384.00
2022-08-26T17:45:21.646Z,432.00
2022-08-26T17:46:21.720Z,472.00
2022-08-26T17:47:21.616Z,492.00
2022-08-26T17:48:21.612Z,492.00
2022-08-26T17:49:21.600Z,468.00
2022-08-26T17:50:21.579Z,420.00
2022-08-26T17:51:21.560Z,372.00
2022-08-26T17:52:21.553Z,336.00
2022-08-26T17:53:21.577Z,304.00
2022-08-26T17:54:21.528Z,280.00
2022-08-26T17:55:21.514Z,268.00
2022-08-26T17:56:21.517Z,256.00
2022-08-26T17:57:21.524Z,244.00
2022-08-26T17:58:23.374Z,228.00
2022-08-26T17:59:21.493Z,208.00
2022-08-26T18:00:21.462Z,192.00
2022-08-26T18:01:21.518Z,184.00
2022-08-26T18:02:21.566Z,180.00
2022-08-26T18:03:21.456Z,168.00
2022-08-26T18:04:21.488Z,160.00
2022-08-26T18:05:21.409Z,156.00
2022-08-26T18:06:21.405Z,156.00
2022-08-26T18:07:21.434Z,164.00
2022-08-26T18:08:21.380Z,160.00
2022-08-26T18:09:21.373Z,164.00
2022-08-26T18:10:21.376Z,168.00
2022-08-26T18:11:21.346Z,168.00
2022-08-26T18:12:21.340Z,164.00
2022-08-26T18:13:21.333Z,172.00
2022-08-26T18:14:21.314Z,168.00
2022-08-26T18:15:21.310Z,160.00
2022-08-26T18:16:21.283Z,156.00
2022-08-26T18:17:21.285Z,152.00
2022-08-26T18:18:21.278Z,152.00
2022-08-26T18:19:21.262Z,152.00
2022-08-26T18:20:21.298Z,156.00
2022-08-26T18:21:21.276Z,148.00
2022-08-26T18:22:21.239Z,148.00
2022-08-26T18:23:21.221Z,156.00
2022-08-26T18:24:21.203Z,156.00
2022-08-26T18:25:21.196Z,148.00
2022-08-26T18:26:21.199Z,140.00
2022-08-26T18:27:21.180Z,136.00
2022-08-26T18:28:21.176Z,132.00
2022-08-26T18:29:21.158Z,120.00
2022-08-26T18:30:21.130Z,108.00
2022-08-26T18:31:21.203Z,92.00
2022-08-26T18:32:21.113Z,80.00
2022-08-26T18:33:21.103Z,72.00
2022-08-26T18:34:21.119Z,64.00
2022-08-26T18:35:21.107Z,56.00
2022-08-26T18:36:21.073Z,52.00
2022-08-26T18:37:21.055Z,44.00
2022-08-26T18:38:21.077Z,40.00
2022-08-26T18:39:22.186Z,36.00
2022-08-26T18:40:21.189Z,32.00
2022-08-26T18:41:21.027Z,24.00
2022-08-26T18:42:20.999Z,24.00
2022-08-26T18:43:20.986Z,20.00
2022-08-26T18:44:21.012Z,20.00
2022-08-26T18:45:20.987Z,16.00
2022-08-26T18:46:21.085Z,12.00
2022-08-26T18:47:20.960Z,8.00
2022-08-26T18:48:20.963Z,8.00
2022-08-26T18:49:20.972Z,4.00
2022-08-26T18:50:20.947Z,4.00
2022-08-26T18:51:20.904Z,4.00
2022-08-26T18:52:20.894Z,4.00
2022-08-26T18:53:20.887Z,0.00
2022-08-26T18:55:20.873Z,0.00
2022-08-26T18:56:20.871Z,4.00
2022-08-26T18:57:20.843Z,4.00
2022-08-26T18:58:20.834Z,0.00
2022-08-26T18:59:29.486Z,0.00
2022-08-26T19:00:21.827Z,0.00
2022-08-26T19:01:24.301Z,0.00
2022-08-26T19:02:22.069Z,0.00
2022-08-26T19:03:20.770Z,0.00
2022-08-26T19:04:20.755Z,0.00
2022-08-26T19:05:20.757Z,0.00
2022-08-26T19:06:20.730Z,0.00
2022-08-26T19:07:20.796Z,0.00
2022-08-26T19:08:20.717Z,0.00
2022-08-26T19:09:20.924Z,0.00
2022-08-26T19:10:20.707Z,0.00
2022-08-26T19:11:31.853Z,0.00
2022-08-26T19:12:21.674Z,0.00
2022-08-26T19:13:20.665Z,0.00
2022-08-26T19:14:20.649Z,0.00
2022-08-26T19:15:20.640Z,0.00
2022-08-26T19:16:20.676Z,0.00
2022-08-26T19:17:22.554Z,0.00
2022-08-26T19:18:20.633Z,0.00
2022-08-26T19:19:20.609Z,0.00
2022-08-26T19:20:20.587Z,0.00
2022-08-26T19:21:20.578Z,0.00
2022-08-26T19:22:20.553Z,0.00
2022-08-26T19:23:31.537Z,0.00
2022-08-26T19:24:21.583Z,0.00
2022-08-26T19:25:20.537Z,0.00
2022-08-26T19:26:20.519Z,0.00
2022-08-26T19:27:20.529Z,0.00
2022-08-26T19:28:20.570Z,0.00
2022-08-26T19:29:20.508Z,0.00
2022-08-26T19:30:20.476Z,0.00
2022-08-26T19:31:20.513Z,0.00
2022-08-26T19:32:20.442Z,0.00
2022-08-26T19:33:20.437Z,0.00
2022-08-26T19:34:21.005Z,0.00
2022-08-26T19:35:20.423Z,0.00
2022-08-26T19:36:20.484Z,0.00
2022-08-26T19:37:20.461Z,0.00
2022-08-26T19:38:20.375Z,0.00
2022-08-26T19:39:20.366Z,0.00
2022-08-26T19:40:20.477Z,0.00
2022-08-26T19:41:20.366Z,0.00
2022-08-26T19:42:20.350Z,0.00
2022-08-26T19:43:20.335Z,0.00
2022-08-26T19:44:20.323Z,0.00
2022-08-26T19:45:25.007Z,0.00
2022-08-26T19:46:21.421Z,0.00
2022-08-26T19:47:20.295Z,0.00
2022-08-26T19:48:20.276Z,0.00
2022-08-26T19:49:20.269Z,0.00
2022-08-26T19:50:20.277Z,0.00
2022-08-26T19:51:20.238Z,0.00
2022-08-26T19:52:20.244Z,0.00
2022-08-26T19:53:20.235Z,0.00
2022-08-26T19:54:20.225Z,0.00
2022-08-26T19:55:20.198Z,0.00
2022-08-26T19:56:20.183Z,0.00
2022-08-26T19:57:20.173Z,0.00
2022-08-26T19:58:20.160Z,0.00
2022-08-26T19:59:20.157Z,0.00
2022-08-26T20:00:20.149Z,0.00
2022-08-26T20:01:20.163Z,0.00
2022-08-26T20:02:20.190Z,0.00
2022-08-26T20:03:20.113Z,0.00
2022-08-26T20:04:20.127Z,0.00
2022-08-26T20:05:20.086Z,0.00
2022-08-26T20:06:20.153Z,0.00
2022-08-26T20:07:20.070Z,0.00
2022-08-26T20:08:22.602Z,0.00
2022-08-26T20:09:20.048Z,0.00
2022-08-26T20:10:20.063Z,0.00
2022-08-26T20:11:20.058Z,0.00
2022-08-26T20:12:20.005Z,0.00
2022-08-26T20:13:19.993Z,0.00
2022-08-26T20:14:22.969Z,0.00
2022-08-26T20:15:19.988Z,0.00
2022-08-26T20:16:20.012Z,0.00
2022-08-26T20:17:19.956Z,0.00
2022-08-26T20:18:19.927Z,0.00
2022-08-26T20:19:19.940Z,0.00
2022-08-26T20:20:32.647Z,0.00
2022-08-26T20:21:20.902Z,0.00
2022-08-26T20:22:19.889Z,0.00
2022-08-26T20:23:19.884Z,0.00
2022-08-26T20:24:19.881Z,0.00
2022-08-26T20:25:19.857Z,0.00
2022-08-26T20:26:19.840Z,0.00
2022-08-26T20:27:19.831Z,0.00
2022-08-26T20:28:19.817Z,0.00
2022-08-26T20:29:19.822Z,0.00
2022-08-26T20:30:19.809Z,0.00
2022-08-26T20:31:19.875Z,0.00
2022-08-26T20:32:19.888Z,0.00
2022-08-26T20:33:19.775Z,0.00
2022-08-26T20:34:19.774Z,0.00
2022-08-26T20:35:19.749Z,0.00
2022-08-26T20:36:19.736Z,0.00
2022-08-26T20:37:20.373Z,0.00
2022-08-26T20:38:21.605Z,0.00
2022-08-26T20:39:19.705Z,0.00
2022-08-26T20:40:19.760Z,0.00
2022-08-26T20:41:19.682Z,0.00
2022-08-26T20:42:20.582Z,0.00
2022-08-26T20:43:19.656Z,0.00
2022-08-26T20:44:19.646Z,0.00
2022-08-26T20:45:19.632Z,0.00
2022-08-26T20:46:24.087Z,0.00
2022-08-26T20:47:20.608Z,0.00
2022-08-26T20:48:19.594Z,0.00
2022-08-26T20:49:19.622Z,0.00
2022-08-26T20:50:19.580Z,0.00
2022-08-26T20:51:19.565Z,0.00
2022-08-26T20:52:19.550Z,0.00
2022-08-26T20:53:19.538Z,0.00
2022-08-26T20:54:19.562Z,0.00
2022-08-26T20:55:19.536Z,0.00
2022-08-26T20:56:19.503Z,0.00
2022-08-26T20:57:19.500Z,0.00
2022-08-26T20:58:19.487Z,0.00
2022-08-26T20:59:19.476Z,0.00
2022-08-26T21:00:19.474Z,0.00
2022-08-26T21:01:19.561Z,0.00
2022-08-26T21:02:19.449Z,0.00
2022-08-26T21:03:19.427Z,0.00
2022-08-26T21:04:19.422Z,0.00
2022-08-26T21:05:19.489Z,0.00
2022-08-26T21:06:19.402Z,0.00
2022-08-26T21:07:19.402Z,0.00
2022-08-26T21:08:19.384Z,0.00
2022-08-26T21:09:19.367Z,0.00
2022-08-26T21:10:19.347Z,0.00
2022-08-26T21:11:19.346Z,0.00
2022-08-26T21:12:19.337Z,0.00
2022-08-26T21:13:19.311Z,0.00
2022-08-26T21:14:19.308Z,0.00
2022-08-26T21:15:19.295Z,0.00
2022-08-26T21:16:19.353Z,0.00
2022-08-26T21:17:19.299Z,0.00
2022-08-26T21:18:19.259Z,0.00
2022-08-26T21:19:19.250Z,0.00
2022-08-26T21:20:19.255Z,0.00
2022-08-26T21:21:19.227Z,0.00